sensor_id;sensor_type;location;lat;lon;timestamp;pressure;altitude;pressure_sealevel;temperature;humidity
23433;BME280;41331;45.412;10.992;2023-06-14T00:00:07;100348.88;;;21.38;78.86
23433;BME280;41331;45.412;10.992;2023-06-14T00:02:36;100354.84;;;21.26;80.63
23433;BME280;41331;45.412;10.992;2023-06-14T00:05:05;100342.63;;;21.16;80.71
23433;BME280;41331;45.412;10.992;2023-06-14T00:07:38;100346.59;;;21.15;80.21
23433;BME280;41331;45.412;10.992;2023-06-14T00:10:11;100340.69;;;21.06;80.37
23433;BME280;41331;45.412;10.992;2023-06-14T00:12:42;100338.72;;;21.10;81.22
23433;BME280;41331;45.412;10.992;2023-06-14T00:15:11;100343.81;;;21.15;79.38
23433;BME280;41331;45.412;10.992;2023-06-14T00:17:40;100334.41;;;20.99;79.90
23433;BME280;41331;45.412;10.992;2023-06-14T00:20:09;100349.78;;;21.10;79.19
23433;BME280;41331;45.412;10.992;2023-06-14T00:22:38;100348.56;;;21.11;79.68
23433;BME280;41331;45.412;10.992;2023-06-14T00:25:06;100353.31;;;21.11;78.94
23433;BME280;41331;45.412;10.992;2023-06-14T00:27:56;100330.84;;;20.98;79.02
23433;BME280;41331;45.412;10.992;2023-06-14T00:30:25;100343.13;;;20.90;80.79
23433;BME280;41331;45.412;10.992;2023-06-14T00:33:01;100339.59;;;20.89;80.03
23433;BME280;41331;45.412;10.992;2023-06-14T00:35:30;100345.13;;;20.86;79.58
23433;BME280;41331;45.412;10.992;2023-06-14T00:37:57;100344.75;;;20.80;80.77
23433;BME280;41331;45.412;10.992;2023-06-14T00:40:29;100336.50;;;20.69;81.82
23433;BME280;41331;45.412;10.992;2023-06-14T00:43:03;100344.38;;;20.71;82.29
23433;BME280;41331;45.412;10.992;2023-06-14T00:45:34;100340.41;;;20.72;81.30
23433;BME280;41331;45.412;10.992;2023-06-14T00:48:05;100336.88;;;20.72;81.84
23433;BME280;41331;45.412;10.992;2023-06-14T00:50:40;100347.13;;;20.67;83.23
23433;BME280;41331;45.412;10.992;2023-06-14T00:53:16;100349.50;;;20.80;82.21
23433;BME280;41331;45.412;10.992;2023-06-14T00:55:49;100344.75;;;20.80;81.53
23433;BME280;41331;45.412;10.992;2023-06-14T00:58:19;100334.84;;;20.83;81.43
23433;BME280;41331;45.412;10.992;2023-06-14T01:00:51;100333.28;;;20.82;80.78
23433;BME280;41331;45.412;10.992;2023-06-14T01:03:19;100344.28;;;20.92;79.78
23433;BME280;41331;45.412;10.992;2023-06-14T01:06:31;100344.28;;;20.92;78.10
23433;BME280;41331;45.412;10.992;2023-06-14T01:09:09;100344.75;;;20.84;82.67
23433;BME280;41331;45.412;10.992;2023-06-14T01:11:56;100337.69;;;20.68;81.44
23433;BME280;41331;45.412;10.992;2023-06-14T01:14:28;100323.44;;;20.63;82.46
23433;BME280;41331;45.412;10.992;2023-06-14T01:16:59;100318.75;;;20.46;83.67
23433;BME280;41331;45.412;10.992;2023-06-14T01:19:30;100327.84;;;20.39;83.26
23433;BME280;41331;45.412;10.992;2023-06-14T01:22:03;100331.00;;;20.48;81.92
23433;BME280;41331;45.412;10.992;2023-06-14T01:24:36;100325.88;;;20.47;81.51
23433;BME280;41331;45.412;10.992;2023-06-14T01:27:12;100319.94;;;20.34;82.49
23433;BME280;41331;45.412;10.992;2023-06-14T01:29:41;100319.53;;;20.42;81.62
23433;BME280;41331;45.412;10.992;2023-06-14T01:32:15;100323.09;;;20.39;82.68
23433;BME280;41331;45.412;10.992;2023-06-14T01:34:47;100328.63;;;20.39;82.09
23433;BME280;41331;45.412;10.992;2023-06-14T01:37:16;100318.34;;;20.33;82.98
23433;BME280;41331;45.412;10.992;2023-06-14T01:39:45;100321.94;;;20.19;83.69
23433;BME280;41331;45.412;10.992;2023-06-14T01:42:18;100315.63;;;20.29;83.66
23433;BME280;41331;45.412;10.992;2023-06-14T01:44:48;100322.34;;;20.28;84.64
23433;BME280;41331;45.412;10.992;2023-06-14T01:47:17;100330.97;;;20.37;84.23
23433;BME280;41331;45.412;10.992;2023-06-14T01:49:46;100314.81;;;20.32;83.99
23433;BME280;41331;45.412;10.992;2023-06-14T01:52:14;100324.28;;;20.31;84.97
23433;BME280;41331;45.412;10.992;2023-06-14T01:54:48;100328.22;;;20.27;85.14
23433;BME280;41331;45.412;10.992;2023-06-14T01:57:19;100321.94;;;20.15;85.40
23433;BME280;41331;45.412;10.992;2023-06-14T01:59:48;100323.53;;;20.24;85.76
23433;BME280;41331;45.412;10.992;2023-06-14T02:02:18;100321.91;;;20.26;85.72
23433;BME280;41331;45.412;10.992;2023-06-14T02:04:46;100319.56;;;20.28;86.09
23433;BME280;41331;45.412;10.992;2023-06-14T02:07:16;100313.22;;;20.28;86.77
23433;BME280;41331;45.412;10.992;2023-06-14T02:09:43;100312.44;;;20.27;87.35
23433;BME280;41331;45.412;10.992;2023-06-14T02:12:10;100316.81;;;20.28;87.17
23433;BME280;41331;45.412;10.992;2023-06-14T02:14:38;100324.28;;;20.17;88.34
23433;BME280;41331;45.412;10.992;2023-06-14T02:17:06;100311.66;;;20.12;89.39
23433;BME280;41331;45.412;10.992;2023-06-14T02:19:34;100316.41;;;20.15;88.70
23433;BME280;41331;45.412;10.992;2023-06-14T02:22:03;100318.34;;;20.36;86.49
23433;BME280;41331;45.412;10.992;2023-06-14T02:24:30;100320.34;;;20.47;85.51
23433;BME280;41331;45.412;10.992;2023-06-14T02:26:58;100317.56;;;20.36;86.50
23433;BME280;41331;45.412;10.992;2023-06-14T02:29:26;100321.13;;;20.33;87.15
23433;BME280;41331;45.412;10.992;2023-06-14T02:31:53;100317.22;;;20.09;89.09
23433;BME280;41331;45.412;10.992;2023-06-14T02:34:20;100322.31;;;20.17;89.09
23433;BME280;41331;45.412;10.992;2023-06-14T02:36:52;100324.31;;;20.24;89.19
23433;BME280;41331;45.412;10.992;2023-06-14T02:39:20;100327.47;;;20.19;88.54
23433;BME280;41331;45.412;10.992;2023-06-14T02:41:48;100321.94;;;20.08;89.99
23433;BME280;41331;45.412;10.992;2023-06-14T02:44:17;100321.56;;;19.96;90.29
23433;BME280;41331;45.412;10.992;2023-06-14T02:46:46;100320.38;;;20.00;90.98
23433;BME280;41331;45.412;10.992;2023-06-14T02:49:14;100324.72;;;19.90;90.58
23433;BME280;41331;45.412;10.992;2023-06-14T02:51:41;100316.41;;;19.87;90.69
23433;BME280;41331;45.412;10.992;2023-06-14T02:54:09;100313.66;;;19.83;90.85
23433;BME280;41331;45.412;10.992;2023-06-14T02:56:38;100317.19;;;19.87;90.92
23433;BME280;41331;45.412;10.992;2023-06-14T02:59:06;100310.91;;;19.94;89.93
23433;BME280;41331;45.412;10.992;2023-06-14T03:01:34;100306.56;;;19.89;89.89
23433;BME280;41331;45.412;10.992;2023-06-14T03:04:07;100308.13;;;19.90;90.69
23433;BME280;41331;45.412;10.992;2023-06-14T03:06:38;100303.38;;;19.87;90.54
23433;BME280;41331;45.412;10.992;2023-06-14T03:09:08;100304.56;;;19.86;90.53
23433;BME280;41331;45.412;10.992;2023-06-14T03:11:40;100300.25;;;19.82;90.30
23433;BME280;41331;45.412;10.992;2023-06-14T03:14:08;100306.94;;;19.81;91.57
23433;BME280;41331;45.412;10.992;2023-06-14T03:16:37;100307.34;;;19.79;90.83
23433;BME280;41331;45.412;10.992;2023-06-14T03:19:06;100294.31;;;19.87;90.27
23433;BME280;41331;45.412;10.992;2023-06-14T03:21:34;100291.19;;;19.85;89.81
23433;BME280;41331;45.412;10.992;2023-06-14T03:24:03;100291.56;;;19.90;89.07
23433;BME280;41331;45.412;10.992;2023-06-14T03:26:33;100287.63;;;19.84;88.44
23433;BME280;41331;45.412;10.992;2023-06-14T03:29:04;100296.69;;;19.96;86.81
23433;BME280;41331;45.412;10.992;2023-06-14T03:31:34;100296.72;;;19.88;87.41
23433;BME280;41331;45.412;10.992;2023-06-14T03:34:05;100294.72;;;19.89;87.39
23433;BME280;41331;45.412;10.992;2023-06-14T03:36:33;100291.97;;;19.85;86.89
23433;BME280;41331;45.412;10.992;2023-06-14T03:39:02;100295.91;;;19.99;85.64
23433;BME280;41331;45.412;10.992;2023-06-14T03:41:29;100288.41;;;19.92;86.00
23433;BME280;41331;45.412;10.992;2023-06-14T03:43:57;100287.63;;;19.91;86.57
23433;BME280;41331;45.412;10.992;2023-06-14T03:46:26;100288.03;;;19.94;87.08
23433;BME280;41331;45.412;10.992;2023-06-14T03:48:54;100297.88;;;19.87;87.04
23433;BME280;41331;45.412;10.992;2023-06-14T03:51:23;100296.69;;;19.78;89.31
23433;BME280;41331;45.412;10.992;2023-06-14T03:53:52;100296.28;;;19.76;89.47
23433;BME280;41331;45.412;10.992;2023-06-14T03:56:26;100290.78;;;19.69;89.78
23433;BME280;41331;45.412;10.992;2023-06-14T03:58:57;100297.09;;;19.76;90.22
23433;BME280;41331;45.412;10.992;2023-06-14T04:01:28;100286.44;;;19.71;89.56
23433;BME280;41331;45.412;10.992;2023-06-14T04:04:00;100306.56;;;19.75;88.92
23433;BME280;41331;45.412;10.992;2023-06-14T04:06:28;100303.00;;;19.60;89.38
23433;BME280;41331;45.412;10.992;2023-06-14T04:09:00;100308.91;;;19.62;90.35
23433;BME280;41331;45.412;10.992;2023-06-14T04:11:31;100309.25;;;19.57;89.47
23433;BME280;41331;45.412;10.992;2023-06-14T04:13:59;100312.84;;;19.65;89.08
23433;BME280;41331;45.412;10.992;2023-06-14T04:16:26;100309.31;;;19.75;88.46
23433;BME280;41331;45.412;10.992;2023-06-14T04:18:55;100318.78;;;19.92;88.43
23433;BME280;41331;45.412;10.992;2023-06-14T04:21:23;100317.22;;;19.91;85.61
23433;BME280;41331;45.412;10.992;2023-06-14T04:23:53;100326.69;;;20.04;83.71
23433;BME280;41331;45.412;10.992;2023-06-14T04:26:25;100319.16;;;20.12;83.07
23433;BME280;41331;45.412;10.992;2023-06-14T04:28:57;100322.72;;;20.02;87.41
23433;BME280;41331;45.412;10.992;2023-06-14T04:31:31;100325.50;;;19.98;88.20
23433;BME280;41331;45.412;10.992;2023-06-14T04:34:02;100331.00;;;19.87;91.02
23433;BME280;41331;45.412;10.992;2023-06-14T04:36:34;100330.25;;;19.94;88.07
23433;BME280;41331;45.412;10.992;2023-06-14T04:39:04;100339.31;;;19.98;89.77
23433;BME280;41331;45.412;10.992;2023-06-14T04:41:31;100336.13;;;20.07;86.46
23433;BME280;41331;45.412;10.992;2023-06-14T04:44:01;100331.78;;;20.13;83.38
23433;BME280;41331;45.412;10.992;2023-06-14T04:46:36;100332.97;;;20.23;83.84
23433;BME280;41331;45.412;10.992;2023-06-14T04:49:17;100336.50;;;20.41;82.29
23433;BME280;41331;45.412;10.992;2023-06-14T04:51:45;100340.88;;;20.21;83.66
23433;BME280;41331;45.412;10.992;2023-06-14T04:54:14;100341.66;;;20.25;85.20
23433;BME280;41331;45.412;10.992;2023-06-14T04:56:42;100344.41;;;20.39;81.96
23433;BME280;41331;45.412;10.992;2023-06-14T04:59:11;100338.50;;;20.44;82.17
23433;BME280;41331;45.412;10.992;2023-06-14T05:01:40;100345.59;;;20.56;81.02
23433;BME280;41331;45.412;10.992;2023-06-14T05:04:08;100338.88;;;20.53;81.42
23433;BME280;41331;45.412;10.992;2023-06-14T05:06:35;100344.81;;;20.41;81.78
23433;BME280;41331;45.412;10.992;2023-06-14T05:09:03;100343.25;;;20.54;81.99
23433;BME280;41331;45.412;10.992;2023-06-14T05:11:31;100344.03;;;20.48;83.68
23433;BME280;41331;45.412;10.992;2023-06-14T05:13:59;100345.19;;;20.61;83.46
23433;BME280;41331;45.412;10.992;2023-06-14T05:16:26;100354.25;;;20.79;80.20
23433;BME280;41331;45.412;10.992;2023-06-14T05:18:55;100344.34;;;20.82;80.04
23433;BME280;41331;45.412;10.992;2023-06-14T05:21:22;100353.38;;;21.00;79.07
23433;BME280;41331;45.412;10.992;2023-06-14T05:23:49;100349.44;;;20.90;82.01
23433;BME280;41331;45.412;10.992;2023-06-14T05:26:18;100356.59;;;20.77;81.34
23433;BME280;41331;45.412;10.992;2023-06-14T05:28:46;100352.25;;;20.73;83.98
23433;BME280;41331;45.412;10.992;2023-06-14T05:31:13;100356.59;;;20.77;83.57
23433;BME280;41331;45.412;10.992;2023-06-14T05:33:41;100357.75;;;20.83;84.50
23433;BME280;41331;45.412;10.992;2023-06-14T05:36:08;100359.78;;;20.76;85.99
23433;BME280;41331;45.412;10.992;2023-06-14T05:38:36;100359.78;;;20.79;83.21
23433;BME280;41331;45.412;10.992;2023-06-14T05:41:03;100361.75;;;20.79;81.18
23433;BME280;41331;45.412;10.992;2023-06-14T05:43:30;100364.44;;;21.04;79.54
23433;BME280;41331;45.412;10.992;2023-06-14T05:45:58;100375.41;;;21.32;77.50
23433;BME280;41331;45.412;10.992;2023-06-14T05:48:26;100367.44;;;21.38;76.45
23433;BME280;41331;45.412;10.992;2023-06-14T05:50:53;100372.19;;;21.41;76.87
23433;BME280;41331;45.412;10.992;2023-06-14T05:53:21;100375.34;;;21.43;76.94
23433;BME280;41331;45.412;10.992;2023-06-14T05:55:50;100373.34;;;21.51;76.16
23433;BME280;41331;45.412;10.992;2023-06-14T05:58:19;100380.13;;;21.35;77.79
23433;BME280;41331;45.412;10.992;2023-06-14T06:00:46;100380.94;;;21.32;80.01
23433;BME280;41331;45.412;10.992;2023-06-14T06:03:13;100382.91;;;21.32;80.46
23433;BME280;41331;45.412;10.992;2023-06-14T06:05:41;100376.97;;;21.26;78.75
23433;BME280;41331;45.412;10.992;2023-06-14T06:08:08;100375.78;;;21.27;79.82
23433;BME280;41331;45.412;10.992;2023-06-14T06:10:36;100376.97;;;21.26;79.33
23433;BME280;41331;45.412;10.992;2023-06-14T06:13:03;100376.97;;;21.30;78.26
23433;BME280;41331;45.412;10.992;2023-06-14T06:15:31;100378.03;;;21.57;76.99
23433;BME280;41331;45.412;10.992;2023-06-14T06:17:58;100385.38;;;21.85;75.56
23433;BME280;41331;45.412;10.992;2023-06-14T06:20:25;100386.69;;;21.66;76.24
23433;BME280;41331;45.412;10.992;2023-06-14T06:22:57;100383.97;;;21.59;76.72
23433;BME280;41331;45.412;10.992;2023-06-14T06:25:26;100388.63;;;21.73;75.59
23433;BME280;41331;45.412;10.992;2023-06-14T06:27:55;100391.00;;;21.71;75.25
23433;BME280;41331;45.412;10.992;2023-06-14T06:30:25;100393.34;;;21.80;74.96
23433;BME280;41331;45.412;10.992;2023-06-14T06:32:53;100399.75;;;21.62;76.27
23433;BME280;41331;45.412;10.992;2023-06-14T06:35:21;100403.00;;;21.54;77.66
23433;BME280;41331;45.412;10.992;2023-06-14T06:37:48;100398.25;;;21.51;77.61
23433;BME280;41331;45.412;10.992;2023-06-14T06:40:15;100401.03;;;21.51;76.56
23433;BME280;41331;45.412;10.992;2023-06-14T06:42:43;100406.53;;;21.54;77.09
23433;BME280;41331;45.412;10.992;2023-06-14T06:45:12;100400.59;;;21.56;78.96
23433;BME280;41331;45.412;10.992;2023-06-14T06:47:40;100396.63;;;21.57;78.23
23433;BME280;41331;45.412;10.992;2023-06-14T06:50:08;100401.78;;;21.55;79.29
23433;BME280;41331;45.412;10.992;2023-06-14T06:52:36;100403.00;;;21.50;80.69
23433;BME280;41331;45.412;10.992;2023-06-14T06:55:03;100407.34;;;21.51;80.06
23433;BME280;41331;45.412;10.992;2023-06-14T06:57:31;100410.16;;;21.44;82.78
23433;BME280;41331;45.412;10.992;2023-06-14T06:59:59;100406.56;;;21.47;82.88
23433;BME280;41331;45.412;10.992;2023-06-14T07:02:26;100405.66;;;21.68;80.12
23433;BME280;41331;45.412;10.992;2023-06-14T07:04:54;100409.25;;;21.65;79.83
23433;BME280;41331;45.412;10.992;2023-06-14T07:07:21;100406.00;;;21.73;78.88
23433;BME280;41331;45.412;10.992;2023-06-14T07:09:49;100415.56;;;21.69;80.36
23433;BME280;41331;45.412;10.992;2023-06-14T07:12:16;100415.56;;;21.65;80.93
23433;BME280;41331;45.412;10.992;2023-06-14T07:14:43;100414.75;;;21.68;81.89
23433;BME280;41331;45.412;10.992;2023-06-14T07:17:11;100412.41;;;21.67;81.73
23433;BME280;41331;45.412;10.992;2023-06-14T07:19:38;100414.00;;;21.64;81.44
23433;BME280;41331;45.412;10.992;2023-06-14T07:22:08;100414.72;;;21.76;80.83
23433;BME280;41331;45.412;10.992;2023-06-14T07:24:35;100420.69;;;21.70;79.98
23433;BME280;41331;45.412;10.992;2023-06-14T07:27:03;100423.06;;;21.68;81.35
23433;BME280;41331;45.412;10.992;2023-06-14T07:29:31;100427.44;;;21.66;81.60
23433;BME280;41331;45.412;10.992;2023-06-14T07:31:58;100426.66;;;21.69;80.76
23433;BME280;41331;45.412;10.992;2023-06-14T07:34:26;100430.19;;;21.69;80.68
23433;BME280;41331;45.412;10.992;2023-06-14T07:36:54;100432.97;;;21.69;82.60
23433;BME280;41331;45.412;10.992;2023-06-14T07:39:22;100431.78;;;21.67;82.00
23433;BME280;41331;45.412;10.992;2023-06-14T07:41:49;100429.00;;;21.74;82.32
23433;BME280;41331;45.412;10.992;2023-06-14T07:44:17;100428.53;;;21.83;79.83
23433;BME280;41331;45.412;10.992;2023-06-14T07:46:44;100429.69;;;21.89;80.52
23433;BME280;41331;45.412;10.992;2023-06-14T07:49:13;100428.94;;;21.81;79.35
23433;BME280;41331;45.412;10.992;2023-06-14T07:51:41;100426.09;;;21.88;79.46
23433;BME280;41331;45.412;10.992;2023-06-14T07:54:08;100430.84;;;21.91;78.61
23433;BME280;41331;45.412;10.992;2023-06-14T07:56:36;100430.38;;;22.04;76.69
23433;BME280;41331;45.412;10.992;2023-06-14T07:59:03;100431.91;;;22.08;76.86
23433;BME280;41331;45.412;10.992;2023-06-14T08:01:31;100429.94;;;22.09;76.82
23433;BME280;41331;45.412;10.992;2023-06-14T08:03:58;100425.59;;;22.08;78.98
23433;BME280;41331;45.412;10.992;2023-06-14T08:06:26;100431.13;;;22.08;77.59
23433;BME280;41331;45.412;10.992;2023-06-14T08:08:54;100431.50;;;22.17;77.71
23433;BME280;41331;45.412;10.992;2023-06-14T08:11:21;100436.16;;;22.27;77.56
23433;BME280;41331;45.412;10.992;2023-06-14T08:13:51;100436.91;;;22.35;76.57
23433;BME280;41331;45.412;10.992;2023-06-14T08:16:18;100433.31;;;22.38;75.80
23433;BME280;41331;45.412;10.992;2023-06-14T08:18:46;100438.41;;;22.43;76.03
23433;BME280;41331;45.412;10.992;2023-06-14T08:21:13;100434.50;;;22.37;78.08
23433;BME280;41331;45.412;10.992;2023-06-14T08:23:42;100435.28;;;22.37;77.68
23433;BME280;41331;45.412;10.992;2023-06-14T08:26:10;100440.81;;;22.41;78.34
23433;BME280;41331;45.412;10.992;2023-06-14T08:28:38;100448.97;;;22.59;75.87
23433;BME280;41331;45.412;10.992;2023-06-14T08:31:05;100447.78;;;22.60;76.23
23433;BME280;41331;45.412;10.992;2023-06-14T08:33:33;100444.25;;;22.56;74.76
23433;BME280;41331;45.412;10.992;2023-06-14T08:36:01;100448.50;;;22.67;71.94
23433;BME280;41331;45.412;10.992;2023-06-14T08:38:28;100448.94;;;22.66;72.08
23433;BME280;41331;45.412;10.992;2023-06-14T08:40:57;100451.16;;;22.82;71.87
23433;BME280;41331;45.412;10.992;2023-06-14T08:43:26;100450.66;;;22.94;69.54
23433;BME280;41331;45.412;10.992;2023-06-14T08:45:57;100455.03;;;22.88;67.85
23433;BME280;41331;45.412;10.992;2023-06-14T08:48:26;100451.97;;;22.79;66.49
23433;BME280;41331;45.412;10.992;2023-06-14T08:50:59;100462.66;;;22.80;68.75
23433;BME280;41331;45.412;10.992;2023-06-14T08:53:32;100457.38;;;22.96;69.68
23433;BME280;41331;45.412;10.992;2023-06-14T08:56:05;100459.22;;;23.10;66.44
23433;BME280;41331;45.412;10.992;2023-06-14T08:58:33;100465.25;;;23.02;66.49
23433;BME280;41331;45.412;10.992;2023-06-14T09:01:01;100461.41;;;22.88;68.79
23433;BME280;41331;45.412;10.992;2023-06-14T09:03:29;100468.03;;;23.02;69.81
23433;BME280;41331;45.412;10.992;2023-06-14T09:05:58;100461.59;;;23.08;68.29
23433;BME280;41331;45.412;10.992;2023-06-14T09:08:29;100468.66;;;23.16;70.71
23433;BME280;41331;45.412;10.992;2023-06-14T09:10:57;100473.13;;;23.07;71.81
23433;BME280;41331;45.412;10.992;2023-06-14T09:13:26;100470.19;;;23.21;69.67
23433;BME280;41331;45.412;10.992;2023-06-14T09:15:57;100474.06;;;23.31;68.92
23433;BME280;41331;45.412;10.992;2023-06-14T09:18:38;100470.53;;;23.26;66.93
23433;BME280;41331;45.412;10.992;2023-06-14T09:21:06;100470.09;;;23.28;67.31
23433;BME280;41331;45.412;10.992;2023-06-14T09:23:39;100468.69;;;23.47;66.77
23433;BME280;41331;45.412;10.992;2023-06-14T09:26:17;100466.72;;;23.47;66.03
23433;BME280;41331;45.412;10.992;2023-06-14T09:28:49;100475.00;;;23.51;66.00
23433;BME280;41331;45.412;10.992;2023-06-14T09:31:18;100472.59;;;23.53;65.48
23433;BME280;41331;45.412;10.992;2023-06-14T09:33:48;100473.22;;;23.34;68.83
23433;BME280;41331;45.412;10.992;2023-06-14T09:36:21;100472.25;;;23.47;68.48
23433;BME280;41331;45.412;10.992;2023-06-14T09:38:56;100473.97;;;23.72;67.83
23433;BME280;41331;45.412;10.992;2023-06-14T09:41:37;100477.88;;;23.74;65.46
23433;BME280;41331;45.412;10.992;2023-06-14T09:44:07;100482.66;;;23.74;63.51
23433;BME280;41331;45.412;10.992;2023-06-14T09:46:37;100476.38;;;23.70;64.09
23433;BME280;41331;45.412;10.992;2023-06-14T09:49:05;100474.72;;;23.76;63.71
23433;BME280;41331;45.412;10.992;2023-06-14T09:51:34;100469.38;;;23.89;62.90
23433;BME280;41331;45.412;10.992;2023-06-14T09:54:04;100477.22;;;23.94;63.49
23433;BME280;41331;45.412;10.992;2023-06-14T09:56:37;100477.72;;;23.89;65.85
23433;BME280;41331;45.412;10.992;2023-06-14T09:59:05;100482.00;;;23.93;64.69
23433;BME280;41331;45.412;10.992;2023-06-14T10:01:35;100480.72;;;24.01;65.63
23433;BME280;41331;45.412;10.992;2023-06-14T10:04:07;100475.13;;;24.05;65.28
23433;BME280;41331;45.412;10.992;2023-06-14T10:06:43;100471.50;;;24.04;63.20
23433;BME280;41331;45.412;10.992;2023-06-14T10:09:12;100470.28;;;24.36;62.15
23433;BME280;41331;45.412;10.992;2023-06-14T10:11:41;100469.53;;;24.32;62.13
23433;BME280;41331;45.412;10.992;2023-06-14T10:14:12;100467.81;;;24.42;62.02
23433;BME280;41331;45.412;10.992;2023-06-14T10:16:58;100460.84;;;24.30;61.33
23433;BME280;41331;45.412;10.992;2023-06-14T10:19:36;100456.69;;;24.42;61.30
23433;BME280;41331;45.412;10.992;2023-06-14T10:22:09;100457.88;;;24.64;62.32
23433;BME280;41331;45.412;10.992;2023-06-14T10:24:41;100460.56;;;24.71;59.78
23433;BME280;41331;45.412;10.992;2023-06-14T10:27:09;100456.94;;;24.94;57.57
23433;BME280;41331;45.412;10.992;2023-06-14T10:32:25;100451.16;;;25.28;57.16
23433;BME280;41331;45.412;10.992;2023-06-14T10:34:57;100452.66;;;24.90;55.92
23433;BME280;41331;45.412;10.992;2023-06-14T10:37:25;100453.75;;;24.96;54.86
23433;BME280;41331;45.412;10.992;2023-06-14T10:39:52;100446.19;;;24.96;56.94
23433;BME280;41331;45.412;10.992;2023-06-14T10:42:28;100443.59;;;25.29;53.07
23433;BME280;41331;45.412;10.992;2023-06-14T10:44:59;100440.00;;;25.48;51.52
23433;BME280;41331;45.412;10.992;2023-06-14T10:47:30;100434.50;;;25.45;53.43
23433;BME280;41331;45.412;10.992;2023-06-14T10:52:29;100436.41;;;25.68;51.58
23433;BME280;41331;45.412;10.992;2023-06-14T10:55:14;100439.09;;;25.91;48.62
23433;BME280;41331;45.412;10.992;2023-06-14T10:57:53;100439.13;;;25.71;47.89
23433;BME280;41331;45.412;10.992;2023-06-14T11:00:28;100441.97;;;26.04;48.76
23433;BME280;41331;45.412;10.992;2023-06-14T11:05:51;100436.66;;;26.09;48.46
23433;BME280;41331;45.412;10.992;2023-06-14T11:11:09;100429.63;;;26.38;50.19
23433;BME280;41331;45.412;10.992;2023-06-14T11:13:38;100425.53;;;26.58;44.23
23433;BME280;41331;45.412;10.992;2023-06-14T11:16:14;100426.13;;;26.50;45.18
23433;BME280;41331;45.412;10.992;2023-06-14T11:18:44;100423.69;;;26.03;45.76
23433;BME280;41331;45.412;10.992;2023-06-14T11:21:15;100420.22;;;26.48;45.85
23433;BME280;41331;45.412;10.992;2023-06-14T11:23:50;100421.22;;;26.99;46.34
23433;BME280;41331;45.412;10.992;2023-06-14T11:26:29;100420.78;;;27.30;47.44
23433;BME280;41331;45.412;10.992;2023-06-14T11:28:59;100407.84;;;27.36;44.73
23433;BME280;41331;45.412;10.992;2023-06-14T11:31:27;100411.38;;;27.78;44.45
23433;BME280;41331;45.412;10.992;2023-06-14T11:33:57;100411.53;;;27.33;40.71
23433;BME280;41331;45.412;10.992;2023-06-14T11:36:29;100408.06;;;27.00;43.91
23433;BME280;41331;45.412;10.992;2023-06-14T11:39:07;100404.34;;;26.28;46.96
23433;BME280;41331;45.412;10.992;2023-06-14T11:41:43;100403.03;;;26.33;46.66
23433;BME280;41331;45.412;10.992;2023-06-14T11:44:11;100386.91;;;26.24;46.85
23433;BME280;41331;45.412;10.992;2023-06-14T11:46:39;100388.75;;;26.31;46.57
23433;BME280;41331;45.412;10.992;2023-06-14T11:49:07;100394.81;;;26.58;46.37
23433;BME280;41331;45.412;10.992;2023-06-14T11:51:36;100397.53;;;26.62;46.31
23433;BME280;41331;45.412;10.992;2023-06-14T11:54:06;100396.63;;;26.65;44.59
23433;BME280;41331;45.412;10.992;2023-06-14T11:56:34;100388.63;;;26.34;45.83
23433;BME280;41331;45.412;10.992;2023-06-14T11:59:03;100389.06;;;26.33;46.46
23433;BME280;41331;45.412;10.992;2023-06-14T12:01:36;100383.50;;;26.00;48.12
23433;BME280;41331;45.412;10.992;2023-06-14T12:04:06;100385.75;;;26.38;47.29
23433;BME280;41331;45.412;10.992;2023-06-14T12:06:33;100380.50;;;26.40;47.48
23433;BME280;41331;45.412;10.992;2023-06-14T12:09:04;100380.03;;;26.13;48.64
23433;BME280;41331;45.412;10.992;2023-06-14T12:11:35;100376.19;;;25.90;48.79
23433;BME280;41331;45.412;10.992;2023-06-14T12:14:05;100372.34;;;25.84;50.72
23433;BME280;41331;45.412;10.992;2023-06-14T12:16:34;100370.09;;;26.12;48.47
23433;BME280;41331;45.412;10.992;2023-06-14T12:19:15;100362.66;;;26.05;48.23
23433;BME280;41331;45.412;10.992;2023-06-14T12:21:47;100360.50;;;26.13;48.36
23433;BME280;41331;45.412;10.992;2023-06-14T12:24:16;100362.28;;;26.35;49.62
23433;BME280;41331;45.412;10.992;2023-06-14T12:26:44;100357.78;;;26.25;47.71
23433;BME280;41331;45.412;10.992;2023-06-14T12:29:12;100361.38;;;26.26;47.43
23433;BME280;41331;45.412;10.992;2023-06-14T12:31:40;100346.94;;;26.60;47.54
23433;BME280;41331;45.412;10.992;2023-06-14T12:34:09;100354.81;;;26.78;46.68
23433;BME280;41331;45.412;10.992;2023-06-14T12:36:37;100355.38;;;26.85;47.38
23433;BME280;41331;45.412;10.992;2023-06-14T12:39:09;100350.72;;;27.12;46.88
23433;BME280;41331;45.412;10.992;2023-06-14T12:41:36;100343.34;;;26.59;46.38
23433;BME280;41331;45.412;10.992;2023-06-14T12:44:04;100355.34;;;26.27;48.06
23433;BME280;41331;45.412;10.992;2023-06-14T12:46:32;100347.16;;;26.04;48.70
23433;BME280;41331;45.412;10.992;2023-06-14T12:48:59;100346.91;;;25.98;50.18
23433;BME280;41331;45.412;10.992;2023-06-14T12:51:27;100353.47;;;25.92;49.93
23433;BME280;41331;45.412;10.992;2023-06-14T12:53:54;100351.59;;;26.34;48.07
23433;BME280;41331;45.412;10.992;2023-06-14T12:56:22;100349.97;;;26.66;48.10
23433;BME280;41331;45.412;10.992;2023-06-14T12:58:51;100349.34;;;26.74;48.51
23433;BME280;41331;45.412;10.992;2023-06-14T13:01:19;100340.78;;;26.52;47.98
23433;BME280;41331;45.412;10.992;2023-06-14T13:03:47;100342.84;;;27.06;47.56